Country
Station

 

Weather  for  Long Beach, Long Beach Airport  -  United States    United States

  
19 °C (66 °F)
    
 
 

Current METAR for Long Beach, Long Beach Airport is :

KLGB 021153Z AUTO 11004KT 10SM OVC019 19/13 A2990 RMK AO2 SLP123 T01890133 10189 20178 53001

 

This is a report for Long Beach, Long Beach Airport - United States.
 
The report was made 19 minutes ago, at 11:53 UTC .
The wind was blowing at a speed of 2.1 meters per second (4.6 miles per hour) from east/southeast (110°).
 
The temperature was 19 °C (66 °F), with a dew-point at 13 °C (55 °F).
The atmospheric pressure was 1013 hPa (29.90 inHg).
The relative humidity was 68.2%.
 
The sky was overcast from a height of 579 meter (1900 feet)
 
The overall visibility was 16.1 kilometers (10.0 miles).
 

 
 
 
 

Country :   A   B   C   D   E   F   G   H   I   J   K   L   M   N   O   P   Q   R   S   T   U   V   W   Y   Z

 

Site Info  |  Disclaimer  |  Credits  |  Privacy
Contact us  |  Add to favorites
© 2013-2020 METARs - All rights reserved